EmailTwitter


Surface observations / United Kingdom / EGLL (03772)

Regions: Quebec | Canada | USA | Europe | France | UK | Elsewhere
Station
Display
Info & Location for EGLL (03772) | Help decoding METAR

Weather Conditions observed on 2017/08/18 at 14:20 UTC at LONDON/HEATHROW, UK (EGLL)

Sky conditions: variable clouds.

Obstruction(s) to Vision: thunder a thunderstorm.

Temperature: 14.0 Celsius.

Dewpoint: 10.0 Celsius.

Relative Humidity: 77%

Winds: West at 20 km/h or 11 knots.

Mean Sea level Pressure: 101.10 kilopascals.

Horizontal visibility: 6.21 statute miles or 9.94 kilometers.

Coded METAR:

EGLL 181420Z AUTO 26011KT 9999 TS FEW016/// SCT035/// //////CB 14/10 Q1011 RETS

RESHGR RERA TEMPO SHRA=